Time,TemperatureF,DewpointF,PressureIn,WindDirection,WindDirectionDegrees,WindSpeedMPH,WindSpeedGustMPH,Humidity,HourlyPrecipIn,Conditions,Clouds,dailyrainin,SoftwareType,DateUTC
2013-02-14 00:00:00,51.0,51.0,29.85,WNW,284,15.0,20.0,100,0.00,,---,0.31,VWS V14.00,2013-02-14 05:00:00,
2013-02-14 00:05:00,51.0,51.0,29.85,WNW,285,12.0,17.0,100,0.00,,---,0.00,VWS V14.00,2013-02-14 05:05:00,
2013-02-14 00:10:00,50.9,50.9,29.85,WNW,285,8.0,17.0,100,0.00,,---,0.00,VWS V14.00,2013-02-14 05:10:00,
2013-02-14 00:15:00,50.9,50.9,29.85,WNW,287,17.0,19.0,100,0.00,,---,0.00,VWS V14.00,2013-02-14 05:15:00,
2013-02-14 00:20:00,50.9,50.9,29.84,WNW,297,11.0,19.0,100,0.00,,---,0.00,VWS V14.00,2013-02-14 05:20:00,
2013-02-14 00:25:00,50.8,50.8,29.85,WNW,292,11.0,19.0,100,0.00,,---,0.00,VWS V14.00,2013-02-14 05:25:00,
2013-02-14 00:30:00,50.8,50.8,29.86,WNW,295,12.0,19.0,100,0.00,,---,0.00,VWS V14.00,2013-02-14 05:30:00,
2013-02-14 00:35:00,50.7,50.7,29.85,WNW,298,11.0,13.0,100,0.00,,---,0.00,VWS V14.00,2013-02-14 05:35:00,
2013-02-14 00:40:00,50.6,50.6,29.85,WNW,296,10.0,13.0,100,0.00,,---,0.00,VWS V14.00,2013-02-14 05:40:00,
2013-02-14 00:45:00,50.6,50.6,29.86,WNW,288,10.0,14.0,100,0.00,,---,0.00,VWS V14.00,2013-02-14 05:45:00,
2013-02-14 00:50:00,50.5,50.5,29.85,WNW,293,13.0,15.0,100,0.00,,---,0.00,VWS V14.00,2013-02-14 05:50:00,
2013-02-14 00:55:00,50.4,50.4,29.86,NW,304,12.0,16.0,100,0.00,,---,0.00,VWS V14.00,2013-02-14 05:55:00,
2013-02-14 01:00:00,50.3,50.3,29.85,NW,307,10.0,16.0,100,0.00,,---,0.00,VWS V14.00,2013-02-14 06:00:00,
2013-02-14 01:05:00,50.2,50.2,29.85,WNW,302,10.0,13.0,100,0.00,,---,0.00,VWS V14.00,2013-02-14 06:05:00,
2013-02-14 01:10:00,50.2,50.2,29.85,WNW,297,10.0,13.0,100,0.00,,---,0.00,VWS V14.00,2013-02-14 06:10:00,
2013-02-14 01:15:00,50.1,50.1,29.85,WNW,302,13.0,13.0,100,0.00,,---,0.00,VWS V14.00,2013-02-14 06:15:00,
2013-02-14 01:20:00,49.9,49.9,29.85,NW,308,12.0,15.0,100,0.00,,---,0.00,VWS V14.00,2013-02-14 06:20:00,
2013-02-14 01:25:00,49.8,49.8,29.84,NW,307,10.0,15.0,100,0.00,,---,0.00,VWS V14.00,2013-02-14 06:25:00,
2013-02-14 01:30:00,49.7,49.7,29.86,WNW,301,11.0,15.0,100,0.00,,---,0.00,VWS V14.00,2013-02-14 06:30:00,
2013-02-14 01:35:00,49.6,49.6,29.85,WNW,303,11.0,13.0,100,0.00,,---,0.00,VWS V14.00,2013-02-14 06:35:00,
2013-02-14 01:40:00,49.5,49.5,29.85,NW,304,8.0,13.0,100,0.00,,---,0.00,VWS V14.00,2013-02-14 06:40:00,
2013-02-14 01:45:00,49.5,49.5,29.86,NW,311,7.0,13.0,100,0.00,,---,0.00,VWS V14.00,2013-02-14 06:45:00,
2013-02-14 01:50:00,49.4,49.4,29.86,NW,305,9.0,13.0,100,0.00,,---,0.00,VWS V14.00,2013-02-14 06:50:00,
2013-02-14 01:55:00,49.3,49.3,29.85,NW,310,9.0,13.0,100,0.00,,---,0.00,VWS V14.00,2013-02-14 06:55:00,
2013-02-14 02:00:00,49.2,49.2,29.86,NW,304,8.0,15.0,100,0.00,,---,0.00,VWS V14.00,2013-02-14 07:00:00,
2013-02-14 02:05:00,49.2,49.2,29.86,WNW,296,8.0,14.0,100,0.00,,---,0.00,VWS V14.00,2013-02-14 07:05:00,
2013-02-14 02:10:00,49.1,49.1,29.88,WNW,295,9.0,14.0,100,0.00,,---,0.00,VWS V14.00,2013-02-14 07:10:00,
2013-02-14 02:15:00,49.1,49.1,29.87,NW,305,2.0,14.0,100,0.00,,---,0.00,VWS V14.00,2013-02-14 07:15:00,
2013-02-14 02:20:00,49.1,49.1,29.87,NW,318,10.0,14.0,100,0.00,,---,0.00,VWS V14.00,2013-02-14 07:20:00,
2013-02-14 02:25:00,49.0,49.0,29.88,NNW,327,13.0,14.0,100,0.00,,---,0.00,VWS V14.00,2013-02-14 07:25:00,
2013-02-14 02:30:00,49.0,49.0,29.88,NNW,330,11.0,14.0,100,0.00,,---,0.00,VWS V14.00,2013-02-14 07:30:00,
2013-02-14 02:35:00,48.9,48.9,29.88,NNW,330,10.0,13.0,100,0.00,,---,0.00,VWS V14.00,2013-02-14 07:35:00,
2013-02-14 02:40:00,48.9,48.9,29.88,NNW,331,9.0,13.0,100,0.00,,---,0.00,VWS V14.00,2013-02-14 07:40:00,
2013-02-14 02:45:00,48.8,48.8,29.89,NW,326,7.0,13.0,100,0.00,,---,0.00,VWS V14.00,2013-02-14 07:45:00,
2013-02-14 02:50:00,48.7,48.7,29.89,NNW,338,12.0,14.0,100,0.00,,---,0.00,VWS V14.00,2013-02-14 07:50:00,
2013-02-14 02:55:00,48.6,48.6,29.89,NNW,329,10.0,17.0,100,0.00,,---,0.00,VWS V14.00,2013-02-14 07:55:00,
2013-02-14 03:00:00,48.5,48.5,29.90,NNW,329,8.0,17.0,100,0.00,,---,0.00,VWS V14.00,2013-02-14 08:00:00,
2013-02-14 03:05:00,48.3,48.3,29.90,NNW,330,9.0,12.0,100,0.00,,---,0.00,VWS V14.00,2013-02-14 08:05:00,
2013-02-14 03:10:00,48.2,48.2,29.90,NNW,342,12.0,13.0,100,0.00,,---,0.00,VWS V14.00,2013-02-14 08:10:00,
2013-02-14 03:15:00,48.1,48.1,29.91,North,349,10.0,13.0,100,0.00,,---,0.00,VWS V14.00,2013-02-14 08:15:00,
2013-02-14 03:20:00,47.9,47.9,29.91,NNW,347,10.0,13.0,100,0.00,,---,0.00,VWS V14.00,2013-02-14 08:20:00,
2013-02-14 03:25:00,47.7,47.7,29.91,North,352,11.0,13.0,100,0.00,,---,0.00,VWS V14.00,2013-02-14 08:25:00,
2013-02-14 03:30:00,47.6,47.6,29.92,NNW,337,10.0,14.0,100,0.00,,---,0.00,VWS V14.00,2013-02-14 08:30:00,
2013-02-14 03:35:00,47.4,47.4,29.92,North,350,9.0,11.0,100,0.00,,---,0.00,VWS V14.00,2013-02-14 08:35:00,
2013-02-14 03:40:00,47.3,47.3,29.93,North,352,9.0,11.0,100,0.00,,---,0.00,VWS V14.00,2013-02-14 08:40:00,
2013-02-14 03:44:00,47.2,47.2,29.93,NNW,334,5.0,11.0,100,0.00,,---,0.00,VWS V14.00,2013-02-14 08:44:00,
2013-02-14 03:49:00,47.0,47.0,29.93,NNW,336,5.0,11.0,100,0.00,,---,0.00,VWS V14.00,2013-02-14 08:49:00,
2013-02-14 03:54:00,46.8,46.8,29.93,NNW,347,9.0,11.0,100,0.00,,---,0.00,VWS V14.00,2013-02-14 08:54:00,
2013-02-14 03:59:00,46.7,46.7,29.94,NNW,331,7.0,11.0,100,0.00,,---,0.00,VWS V14.00,2013-02-14 08:59:00,
2013-02-14 04:04:00,46.5,46.5,29.94,North,350,6.0,12.0,100,0.00,,---,0.00,VWS V14.00,2013-02-14 09:04:00,
2013-02-14 04:09:00,46.4,46.4,29.94,North,355,4.0,12.0,100,0.00,,---,0.00,VWS V14.00,2013-02-14 09:09:00,
2013-02-14 04:14:00,46.3,46.3,29.95,NNW,336,5.0,12.0,100,0.00,,---,0.00,VWS V14.00,2013-02-14 09:14:00,
2013-02-14 04:19:00,46.2,46.2,29.95,NNW,347,4.0,12.0,100,0.00,,---,0.00,VWS V14.00,2013-02-14 09:19:00,
2013-02-14 04:24:00,46.1,46.1,29.96,NNW,327,6.0,12.0,100,0.00,,---,0.00,VWS V14.00,2013-02-14 09:24:00,
2013-02-14 04:29:00,45.8,45.8,29.96,NNW,327,6.0,12.0,100,0.00,,---,0.00,VWS V14.00,2013-02-14 09:29:00,
2013-02-14 04:34:00,45.7,45.7,29.97,NW,326,5.0,7.0,100,0.00,,---,0.00,VWS V14.00,2013-02-14 09:34:00,
2013-02-14 04:39:00,45.5,45.5,29.97,NNW,330,5.0,7.0,100,0.00,,---,0.00,VWS V14.00,2013-02-14 09:39:00,
2013-02-14 04:44:00,45.3,45.3,29.97,NNW,333,5.0,7.0,100,0.00,,---,0.00,VWS V14.00,2013-02-14 09:44:00,
2013-02-14 04:49:00,45.2,45.2,29.97,NNW,332,5.0,7.0,100,0.00,,---,0.00,VWS V14.00,2013-02-14 09:49:00,
2013-02-14 04:54:00,45.0,45.0,29.98,NNW,332,5.0,7.0,100,0.00,,---,0.00,VWS V14.00,2013-02-14 09:54:00,
2013-02-14 04:59:00,44.8,44.8,29.98,NNW,331,5.0,7.0,100,0.00,,---,0.00,VWS V14.00,2013-02-14 09:59:00,
2013-02-14 05:04:00,44.7,44.7,29.99,NNW,330,4.0,6.0,100,0.00,,---,0.00,VWS V14.00,2013-02-14 10:04:00,
2013-02-14 05:09:00,44.5,44.5,29.99,NNW,333,4.0,6.0,100,0.00,,---,0.00,VWS V14.00,2013-02-14 10:09:00,
2013-02-14 05:14:00,44.4,44.4,29.99,NNW,332,4.0,7.0,100,0.00,,---,0.00,VWS V14.00,2013-02-14 10:14:00,
2013-02-14 05:19:00,44.3,44.3,29.99,NW,312,5.0,7.0,100,0.00,,---,0.00,VWS V14.00,2013-02-14 10:19:00,
2013-02-14 05:24:00,44.2,44.2,30.00,NW,322,6.0,9.0,100,0.00,,---,0.00,VWS V14.00,2013-02-14 10:24:00,
2013-02-14 05:29:00,44.1,44.1,29.99,NNW,327,7.0,9.0,100,0.00,,---,0.00,VWS V14.00,2013-02-14 10:29:00,
2013-02-14 05:34:00,44.0,44.0,29.99,NNW,332,7.0,8.0,100,0.00,,---,0.00,VWS V14.00,2013-02-14 10:34:00,
2013-02-14 05:39:00,43.9,43.9,30.00,NNW,333,6.0,8.0,100,0.00,,---,0.00,VWS V14.00,2013-02-14 10:39:00,
2013-02-14 05:44:00,43.8,43.8,30.00,NNW,337,6.0,8.0,100,0.00,,---,0.00,VWS V14.00,2013-02-14 10:44:00,
2013-02-14 05:49:00,43.7,43.7,30.00,NNW,335,5.0,8.0,100,0.00,,---,0.00,VWS V14.00,2013-02-14 10:49:00,
2013-02-14 05:54:00,43.6,43.6,30.00,NNW,328,5.0,8.0,100,0.00,,---,0.00,VWS V14.00,2013-02-14 10:54:00,
2013-02-14 05:59:00,43.5,43.5,30.01,NNW,339,5.0,8.0,100,0.00,,---,0.00,VWS V14.00,2013-02-14 10:59:00,
2013-02-14 06:04:00,43.4,43.4,30.00,NNW,335,6.0,7.0,100,0.00,,---,0.00,VWS V14.00,2013-02-14 11:04:00,
2013-02-14 06:09:00,43.3,43.3,30.00,NNW,348,5.0,7.0,100,0.00,,---,0.00,VWS V14.00,2013-02-14 11:09:00,
2013-02-14 06:14:00,43.3,43.3,30.00,NNW,347,4.0,7.0,100,0.00,,---,0.00,VWS V14.00,2013-02-14 11:14:00,
2013-02-14 06:19:00,43.3,43.3,30.00,North,354,3.0,7.0,100,0.00,,---,0.00,VWS V14.00,2013-02-14 11:19:00,
2013-02-14 06:24:00,43.2,43.2,30.01,North,354,4.0,7.0,100,0.00,,---,0.00,VWS V14.00,2013-02-14 11:24:00,
2013-02-14 06:29:00,43.1,43.1,30.01,North,355,6.0,7.0,100,0.00,,---,0.00,VWS V14.00,2013-02-14 11:29:00,
2013-02-14 06:34:00,43.1,43.1,30.01,North,0,5.0,7.0,100,0.00,,---,0.00,VWS V14.00,2013-02-14 11:34:00,
2013-02-14 06:39:00,43.1,43.1,30.01,North,353,8.0,8.0,100,0.00,,---,0.00,VWS V14.00,2013-02-14 11:39:00,
2013-02-14 06:44:00,43.0,43.0,30.01,North,359,7.0,8.0,100,0.00,,---,0.00,VWS V14.00,2013-02-14 11:44:00,
2013-02-14 06:49:00,42.9,42.9,30.01,North,356,7.0,9.0,100,0.00,,---,0.00,VWS V14.00,2013-02-14 11:49:00,
2013-02-14 06:54:00,42.8,42.8,30.01,North,353,6.0,10.0,100,0.00,,---,0.00,VWS V14.00,2013-02-14 11:54:00,
2013-02-14 06:59:00,42.8,42.8,30.01,North,357,6.0,10.0,100,0.00,,---,0.00,VWS V14.00,2013-02-14 11:59:00,
2013-02-14 07:04:00,42.7,42.7,30.02,North,351,6.0,10.0,100,0.00,,---,0.00,VWS V14.00,2013-02-14 12:04:00,
2013-02-14 07:09:00,42.7,42.7,30.02,North,353,7.0,10.0,100,0.00,,---,0.00,VWS V14.00,2013-02-14 12:09:00,
2013-02-14 07:14:00,42.6,42.6,30.02,North,3,7.0,10.0,100,0.00,,---,0.00,VWS V14.00,2013-02-14 12:14:00,
2013-02-14 07:19:00,42.6,42.6,30.02,North,0,6.0,10.0,100,0.00,,---,0.00,VWS V14.00,2013-02-14 12:19:00,
2013-02-14 07:24:00,42.6,42.6,30.02,North,0,6.0,10.0,100,0.00,,---,0.00,VWS V14.00,2013-02-14 12:24:00,
2013-02-14 07:29:00,42.5,42.5,30.03,North,356,8.0,10.0,100,0.00,,---,0.00,VWS V14.00,2013-02-14 12:29:00,
2013-02-14 07:34:00,42.5,42.5,30.02,North,0,5.0,9.0,100,0.00,,---,0.00,VWS V14.00,2013-02-14 12:34:00,
2013-02-14 07:39:00,42.5,42.5,30.03,North,358,8.0,10.0,100,0.00,,---,0.00,VWS V14.00,2013-02-14 12:39:00,
2013-02-14 07:44:00,42.5,42.5,30.03,North,359,6.0,10.0,100,0.00,,---,0.00,VWS V14.00,2013-02-14 12:44:00,
2013-02-14 07:49:00,42.5,42.5,30.02,North,4,7.0,10.0,100,0.00,,---,0.00,VWS V14.00,2013-02-14 12:49:00,
2013-02-14 07:54:00,42.5,42.5,30.04,North,349,5.0,10.0,100,0.00,,---,0.00,VWS V14.00,2013-02-14 12:54:00,
2013-02-14 07:59:00,42.6,42.6,30.04,North,0,6.0,10.0,100,0.00,,---,0.00,VWS V14.00,2013-02-14 12:59:00,
2013-02-14 08:04:00,42.6,42.6,30.04,North,0,7.0,10.0,100,0.00,,---,0.00,VWS V14.00,2013-02-14 13:04:00,
2013-02-14 08:09:00,42.7,42.7,30.05,North,0,5.0,10.0,100,0.00,,---,0.00,VWS V14.00,2013-02-14 13:09:00,
2013-02-14 08:14:00,42.7,42.7,30.05,North,3,5.0,10.0,100,0.00,,---,0.00,VWS V14.00,2013-02-14 13:14:00,
2013-02-14 08:19:00,42.7,42.7,30.06,North,356,6.0,10.0,100,0.00,,---,0.00,VWS V14.00,2013-02-14 13:19:00,
2013-02-14 08:24:00,42.9,42.9,30.07,NNW,336,8.0,10.0,100,0.00,,---,0.00,VWS V14.00,2013-02-14 13:24:00,
2013-02-14 08:29:00,43.0,43.0,30.07,North,6,8.0,10.0,100,0.00,,---,0.00,VWS V14.00,2013-02-14 13:29:00,
2013-02-14 08:34:00,43.1,43.1,30.06,North,0,10.0,10.0,100,0.00,,---,0.00,VWS V14.00,2013-02-14 13:34:00,
2013-02-14 08:39:00,43.2,43.2,30.07,NNE,27,11.0,13.0,100,0.00,,---,0.00,VWS V14.00,2013-02-14 13:39:00,
2013-02-14 08:44:00,43.3,43.3,30.07,North,2,11.0,14.0,100,0.00,,---,0.00,VWS V14.00,2013-02-14 13:44:00,
2013-02-14 08:49:00,43.4,43.4,30.08,North,1,6.0,14.0,100,0.00,,---,0.00,VWS V14.00,2013-02-14 13:49:00,
2013-02-14 08:54:00,43.5,43.5,30.07,North,7,8.0,14.0,100,0.00,,---,0.00,VWS V14.00,2013-02-14 13:54:00,
2013-02-14 08:59:00,43.5,43.5,30.07,North,4,10.0,14.0,100,0.00,,---,0.00,VWS V14.00,2013-02-14 13:59:00,
2013-02-14 09:04:00,43.5,43.5,30.07,NNE,19,7.0,14.0,100,0.00,,---,0.00,VWS V14.00,2013-02-14 14:04:00,
2013-02-14 09:09:00,43.5,43.5,30.08,NNE,12,10.0,14.0,100,0.00,,---,0.00,VWS V14.00,2013-02-14 14:09:00,
2013-02-14 09:14:00,43.6,43.6,30.08,North,0,8.0,14.0,100,0.00,,---,0.00,VWS V14.00,2013-02-14 14:14:00,
2013-02-14 09:19:00,43.6,43.6,30.08,North,6,13.0,14.0,100,0.00,,---,0.00,VWS V14.00,2013-02-14 14:19:00,
2013-02-14 09:24:00,43.7,43.7,30.08,North,5,8.0,14.0,100,0.00,,---,0.00,VWS V14.00,2013-02-14 14:24:00,
2013-02-14 09:29:00,43.7,43.7,30.08,North,358,8.0,14.0,100,0.00,,---,0.00,VWS V14.00,2013-02-14 14:29:00,
2013-02-14 09:34:00,43.7,43.4,30.08,NE,38,6.0,13.0,99,0.00,,---,0.00,VWS V14.00,2013-02-14 14:34:00,
2013-02-14 09:39:00,43.7,43.2,30.07,NNE,27,7.0,14.0,98,0.00,,---,0.00,VWS V14.00,2013-02-14 14:39:00,
2013-02-14 09:44:00,43.8,43.3,30.06,North,4,12.0,15.0,98,0.00,,---,0.00,VWS V14.00,2013-02-14 14:44:00,
2013-02-14 09:49:00,43.9,43.4,30.06,NE,34,9.0,15.0,98,0.00,,---,0.00,VWS V14.00,2013-02-14 14:49:00,
2013-02-14 09:54:00,43.9,43.1,30.06,North,9,13.0,15.0,97,0.00,,---,0.00,VWS V14.00,2013-02-14 14:54:00,
2013-02-14 09:59:00,43.9,43.1,30.06,NE,48,14.0,15.0,97,0.00,,---,0.00,VWS V14.00,2013-02-14 14:59:00,
2013-02-14 10:04:00,43.9,42.8,30.07,NNE,29,9.0,14.0,96,0.00,,---,0.00,VWS V14.00,2013-02-14 15:04:00,
2013-02-14 10:09:00,44.1,43.6,30.08,NE,38,10.0,14.0,98,0.00,,---,0.00,VWS V14.00,2013-02-14 15:09:00,
2013-02-14 10:14:00,44.1,43.0,30.08,North,7,12.0,14.0,96,0.00,,---,0.00,VWS V14.00,2013-02-14 15:14:00,
2013-02-14 10:19:00,44.2,43.1,30.08,NNE,19,10.0,15.0,96,0.00,,---,0.00,VWS V14.00,2013-02-14 15:19:00,
2013-02-14 10:24:00,44.3,43.2,30.08,NNE,33,10.0,15.0,96,0.00,,---,0.00,VWS V14.00,2013-02-14 15:24:00,
2013-02-14 10:29:00,44.3,43.0,30.08,NE,47,5.0,15.0,95,0.00,,---,0.00,VWS V14.00,2013-02-14 15:29:00,
2013-02-14 10:34:00,44.4,43.3,30.08,North,10,6.0,11.0,96,0.00,,---,0.00,VWS V14.00,2013-02-14 15:34:00,
2013-02-14 10:39:00,44.5,43.4,30.09,NNE,29,10.0,14.0,96,0.00,,---,0.00,VWS V14.00,2013-02-14 15:39:00,
2013-02-14 10:44:00,44.6,43.5,30.09,NNE,28,8.0,15.0,96,0.00,,---,0.00,VWS V14.00,2013-02-14 15:44:00,
2013-02-14 10:49:00,44.6,43.3,30.10,NNE,21,7.0,15.0,95,0.00,,---,0.00,VWS V14.00,2013-02-14 15:49:00,
2013-02-14 10:54:00,44.6,43.0,30.09,NE,40,4.0,15.0,94,0.00,,---,0.00,VWS V14.00,2013-02-14 15:54:00,
2013-02-14 10:59:00,44.7,43.6,30.09,NNE,21,9.0,15.0,96,0.00,,---,0.00,VWS V14.00,2013-02-14 15:59:00,
2013-02-14 11:04:00,44.8,43.5,30.08,NNE,23,4.0,11.0,95,0.00,,---,0.00,VWS V14.00,2013-02-14 16:04:00,
2013-02-14 11:09:00,44.8,43.5,30.08,NE,41,5.0,11.0,95,0.00,,---,0.00,VWS V14.00,2013-02-14 16:09:00,
2013-02-14 11:14:00,44.8,43.7,30.08,NE,55,2.0,11.0,96,0.00,,---,0.00,VWS V14.00,2013-02-14 16:14:00,
2013-02-14 11:19:00,45.0,43.9,30.08,NE,45,3.0,11.0,96,0.00,,---,0.00,VWS V14.00,2013-02-14 16:19:00,
2013-02-14 11:24:00,45.1,44.0,30.08,ENE,70,5.0,11.0,96,0.00,,---,0.00,VWS V14.00,2013-02-14 16:24:00,
2013-02-14 11:29:00,45.1,44.0,30.08,ENE,73,2.0,11.0,96,0.00,,---,0.00,VWS V14.00,2013-02-14 16:29:00,
2013-02-14 11:34:00,45.2,44.4,30.08,ENE,68,2.0,8.0,97,0.00,,---,0.00,VWS V14.00,2013-02-14 16:34:00,
2013-02-14 11:39:00,45.2,43.9,30.08,ENE,67,7.0,10.0,95,0.00,,---,0.00,VWS V14.00,2013-02-14 16:39:00,
2013-02-14 11:44:00,45.3,44.0,30.08,NE,54,2.0,10.0,95,0.00,,---,0.00,VWS V14.00,2013-02-14 16:44:00,
2013-02-14 11:49:00,45.3,44.5,30.09,ENE,68,3.0,10.0,97,0.00,,---,0.00,VWS V14.00,2013-02-14 16:49:00,
2013-02-14 11:54:00,45.4,44.3,30.09,ENE,69,5.0,10.0,96,0.00,,---,0.00,VWS V14.00,2013-02-14 16:54:00,
2013-02-14 11:59:00,45.5,44.4,30.09,ENE,69,4.0,10.0,96,0.00,,---,0.00,VWS V14.00,2013-02-14 16:59:00,
2013-02-14 12:04:00,45.6,44.2,30.09,NE,54,4.0,8.0,95,0.00,,---,0.00,VWS V14.00,2013-02-14 17:04:00,
2013-02-14 12:09:00,45.6,44.0,30.08,ENE,72,3.0,9.0,94,0.00,,---,0.00,VWS V14.00,2013-02-14 17:09:00,
2013-02-14 12:14:00,45.7,44.6,30.09,ENE,72,2.0,9.0,96,0.00,,---,0.00,VWS V14.00,2013-02-14 17:14:00,
2013-02-14 12:19:00,45.7,44.1,30.08,NE,52,2.0,9.0,94,0.00,,---,0.00,VWS V14.00,2013-02-14 17:19:00,
2013-02-14 12:24:00,45.9,44.3,30.08,NE,42,8.0,10.0,94,0.00,,---,0.00,VWS V14.00,2013-02-14 17:24:00,
2013-02-14 12:29:00,46.0,44.4,30.08,NE,43,4.0,10.0,94,0.00,,---,0.00,VWS V14.00,2013-02-14 17:29:00,
2013-02-14 12:34:00,46.0,44.4,30.08,NE,41,6.0,9.0,94,0.00,,---,0.00,VWS V14.00,2013-02-14 17:34:00,
2013-02-14 12:39:00,46.1,44.5,30.08,NE,47,4.0,9.0,94,0.00,,---,0.00,VWS V14.00,2013-02-14 17:39:00,
2013-02-14 12:44:00,46.2,44.6,30.08,NNE,27,10.0,10.0,94,0.00,,---,0.00,VWS V14.00,2013-02-14 17:44:00,
2013-02-14 12:49:00,46.2,44.3,30.08,ENE,59,1.0,10.0,93,0.00,,---,0.00,VWS V14.00,2013-02-14 17:49:00,
2013-02-14 12:54:00,46.2,44.3,30.08,NE,44,2.0,10.0,93,0.00,,---,0.00,VWS V14.00,2013-02-14 17:54:00,
2013-02-14 12:59:00,46.3,44.7,30.08,NE,54,6.0,12.0,94,0.00,,---,0.00,VWS V14.00,2013-02-14 17:59:00,
2013-02-14 13:04:00,46.4,44.5,30.08,NE,37,2.0,6.0,93,0.00,,---,0.00,VWS V14.00,2013-02-14 18:04:00,
2013-02-14 13:09:00,46.4,44.8,30.07,NE,34,6.0,6.0,94,0.00,,---,0.00,VWS V14.00,2013-02-14 18:09:00,
2013-02-14 13:14:00,46.5,44.6,30.08,NE,36,4.0,10.0,93,0.00,,---,0.00,VWS V14.00,2013-02-14 18:14:00,
2013-02-14 13:19:00,46.5,44.6,30.07,NE,44,2.0,10.0,93,0.00,,---,0.00,VWS V14.00,2013-02-14 18:19:00,
2013-02-14 13:24:00,46.6,45.0,30.07,NE,46,2.0,10.0,94,0.00,,---,0.00,VWS V14.00,2013-02-14 18:24:00,
2013-02-14 13:29:00,46.7,45.1,30.07,North,10,3.0,10.0,94,0.00,,---,0.00,VWS V14.00,2013-02-14 18:29:00,
2013-02-14 13:34:00,46.8,44.9,30.07,NE,41,1.0,5.0,93,0.00,,---,0.00,VWS V14.00,2013-02-14 18:34:00,
2013-02-14 13:39:00,46.8,45.2,30.07,NNE,21,1.0,5.0,94,0.00,,---,0.00,VWS V14.00,2013-02-14 18:39:00,
2013-02-14 13:44:00,46.9,45.0,30.08,North,0,3.0,5.0,93,0.00,,---,0.00,VWS V14.00,2013-02-14 18:44:00,
2013-02-14 13:49:00,47.0,45.4,30.08,North,354,2.0,5.0,94,0.00,,---,0.00,VWS V14.00,2013-02-14 18:49:00,
2013-02-14 13:54:00,47.1,45.5,30.08,North,0,6.0,8.0,94,0.00,,---,0.00,VWS V14.00,2013-02-14 18:54:00,
2013-02-14 13:59:00,47.2,45.6,30.09,North,357,2.0,8.0,94,0.00,,---,0.00,VWS V14.00,2013-02-14 18:59:00,
2013-02-14 14:04:00,47.2,45.3,30.08,North,356,2.0,8.0,93,0.00,,---,0.00,VWS V14.00,2013-02-14 19:04:00,
2013-02-14 14:09:00,47.2,45.0,30.07,North,0,0.0,8.0,92,0.00,,---,0.00,VWS V14.00,2013-02-14 19:09:00,
2013-02-14 14:14:00,47.1,44.3,30.07,NE,37,1.0,8.0,90,0.00,,---,0.00,VWS V14.00,2013-02-14 19:14:00,
2013-02-14 14:19:00,47.1,44.6,30.06,ENE,57,2.0,8.0,91,0.00,,---,0.00,VWS V14.00,2013-02-14 19:19:00,
2013-02-14 14:24:00,47.1,44.3,30.06,NE,37,1.0,8.0,90,0.00,,---,0.00,VWS V14.00,2013-02-14 19:24:00,
2013-02-14 14:29:00,47.2,44.4,30.05,NNE,21,1.0,8.0,90,0.00,,---,0.00,VWS V14.00,2013-02-14 19:29:00,
2013-02-14 14:34:00,47.2,44.4,30.05,NE,39,0.0,2.0,90,0.00,,---,0.00,VWS V14.00,2013-02-14 19:34:00,
2013-02-14 14:39:00,47.3,45.7,30.05,NE,39,0.0,2.0,94,0.00,,---,0.00,VWS V14.00,2013-02-14 19:39:00,
2013-02-14 14:44:00,47.3,45.4,30.06,NE,39,5.0,5.0,93,0.00,,---,0.00,VWS V14.00,2013-02-14 19:44:00,
2013-02-14 14:49:00,47.4,44.9,30.05,ENE,57,2.0,5.0,91,0.00,,---,0.00,VWS V14.00,2013-02-14 19:49:00,
2013-02-14 14:54:00,47.3,44.5,30.06,ENE,57,0.0,5.0,90,0.00,,---,0.00,VWS V14.00,2013-02-14 19:54:00,
2013-02-14 14:59:00,47.4,45.2,30.06,ENE,57,0.0,5.0,92,0.00,,---,0.00,VWS V14.00,2013-02-14 19:59:00,
2013-02-14 15:04:00,47.4,45.8,30.06,ENE,60,0.0,1.0,94,0.00,,---,0.00,VWS V14.00,2013-02-14 20:04:00,
2013-02-14 15:09:00,47.5,46.7,30.06,ESE,112,0.0,3.0,97,0.00,,---,0.00,VWS V14.00,2013-02-14 20:09:00,
2013-02-14 15:14:00,47.6,46.8,30.06,ESE,117,2.0,4.0,97,0.00,,---,0.00,VWS V14.00,2013-02-14 20:14:00,
2013-02-14 15:19:00,47.7,46.9,30.06,SE,130,2.0,4.0,97,0.00,,---,0.00,VWS V14.00,2013-02-14 20:19:00,
2013-02-14 15:24:00,47.8,47.0,30.06,ESE,116,1.0,4.0,97,0.00,,---,0.00,VWS V14.00,2013-02-14 20:24:00,
2013-02-14 15:29:00,47.8,47.0,30.07,SE,131,0.0,4.0,97,0.00,,---,0.00,VWS V14.00,2013-02-14 20:29:00,
2013-02-14 15:34:00,47.9,47.1,30.07,ESE,114,0.0,3.0,97,0.00,,---,0.00,VWS V14.00,2013-02-14 20:34:00,
2013-02-14 15:39:00,47.9,47.4,30.07,SE,134,0.0,3.0,98,0.00,,---,0.00,VWS V14.00,2013-02-14 20:39:00,
2013-02-14 15:44:00,47.9,47.4,30.08,SE,134,0.0,3.0,98,0.00,,---,0.00,VWS V14.00,2013-02-14 20:44:00,
2013-02-14 15:49:00,48.0,47.7,30.07,SE,133,0.0,3.0,99,0.00,,---,0.00,VWS V14.00,2013-02-14 20:49:00,
2013-02-14 15:54:00,48.0,47.2,30.07,SE,133,0.0,3.0,97,0.00,,---,0.00,VWS V14.00,2013-02-14 20:54:00,
2013-02-14 15:59:00,48.1,47.3,30.06,SE,133,0.0,3.0,97,0.00,,---,0.00,VWS V14.00,2013-02-14 20:59:00,
2013-02-14 16:04:00,48.1,47.3,30.06,East,96,1.0,3.0,97,0.00,,---,0.00,VWS V14.00,2013-02-14 21:04:00,
2013-02-14 16:09:00,48.1,47.3,30.06,ESE,121,0.0,4.0,97,0.00,,---,0.00,VWS V14.00,2013-02-14 21:09:00,
2013-02-14 16:14:00,48.1,47.3,30.06,SE,137,2.0,4.0,97,0.00,,---,0.00,VWS V14.00,2013-02-14 21:14:00,
2013-02-14 16:19:00,48.1,47.6,30.06,SE,124,2.0,4.0,98,0.00,,---,0.00,VWS V14.00,2013-02-14 21:19:00,
2013-02-14 16:24:00,48.2,47.7,30.05,ESE,107,2.0,4.0,98,0.00,,---,0.00,VWS V14.00,2013-02-14 21:24:00,
2013-02-14 16:29:00,48.2,47.7,30.06,SE,130,4.0,4.0,98,0.00,,---,0.00,VWS V14.00,2013-02-14 21:29:00,
2013-02-14 16:34:00,48.1,47.3,30.06,SSE,151,1.0,5.0,97,0.00,,---,0.00,VWS V14.00,2013-02-14 21:34:00,
2013-02-14 16:39:00,48.0,46.9,30.07,SE,127,2.0,5.0,96,0.00,,---,0.00,VWS V14.00,2013-02-14 21:39:00,
2013-02-14 16:44:00,47.9,47.1,30.07,SE,136,1.0,5.0,97,0.00,,---,0.00,VWS V14.00,2013-02-14 21:44:00,
2013-02-14 16:49:00,47.8,47.0,30.07,ESE,121,3.0,5.0,97,0.00,,---,0.00,VWS V14.00,2013-02-14 21:49:00,
2013-02-14 16:54:00,47.9,47.4,30.07,SSE,160,1.0,6.0,98,0.00,,---,0.00,VWS V14.00,2013-02-14 21:54:00,
2013-02-14 16:59:00,47.8,47.0,30.08,SSE,158,3.0,6.0,97,0.00,,---,0.00,VWS V14.00,2013-02-14 21:59:00,
2013-02-14 17:04:00,47.7,46.9,30.08,SSE,149,4.0,8.0,97,0.00,,---,0.00,VWS V14.00,2013-02-14 22:04:00,
2013-02-14 17:09:00,47.6,47.1,30.08,SE,145,7.0,9.0,98,0.00,,---,0.00,VWS V14.00,2013-02-14 22:09:00,
2013-02-14 17:14:00,47.4,46.9,30.08,SSE,162,2.0,9.0,98,0.00,,---,0.00,VWS V14.00,2013-02-14 22:14:00,
2013-02-14 17:19:00,47.3,46.8,30.08,SSE,153,2.0,9.0,98,0.00,,---,0.00,VWS V14.00,2013-02-14 22:19:00,
2013-02-14 17:24:00,47.2,46.7,30.08,SE,134,1.0,9.0,98,0.00,,---,0.00,VWS V14.00,2013-02-14 22:24:00,
2013-02-14 17:29:00,47.1,46.6,30.09,SSE,148,2.0,9.0,98,0.00,,---,0.00,VWS V14.00,2013-02-14 22:29:00,
2013-02-14 17:34:00,46.9,46.4,30.08,SSE,151,1.0,4.0,98,0.00,,---,0.00,VWS V14.00,2013-02-14 22:34:00,
2013-02-14 17:39:00,46.9,46.6,30.08,SE,129,1.0,4.0,99,0.00,,---,0.00,VWS V14.00,2013-02-14 22:39:00,
2013-02-14 17:44:00,46.7,46.4,30.08,SE,129,0.0,4.0,99,0.00,,---,0.00,VWS V14.00,2013-02-14 22:44:00,
2013-02-14 17:49:00,46.6,46.6,30.10,SE,131,1.0,4.0,100,0.00,,---,0.00,VWS V14.00,2013-02-14 22:49:00,
2013-02-14 17:54:00,46.5,46.5,30.10,SE,132,1.0,4.0,100,0.00,,---,0.00,VWS V14.00,2013-02-14 22:54:00,
2013-02-14 17:59:00,46.4,46.4,30.09,SE,132,0.0,4.0,100,0.00,,---,0.00,VWS V14.00,2013-02-14 22:59:00,
2013-02-14 18:04:00,46.3,46.3,30.09,SE,131,1.0,1.0,100,0.00,,---,0.00,VWS V14.00,2013-02-14 23:04:00,
2013-02-14 18:09:00,46.3,46.3,30.10,SE,131,0.0,1.0,100,0.00,,---,0.00,VWS V14.00,2013-02-14 23:09:00,
2013-02-14 18:14:00,46.2,46.2,30.09,SE,131,0.0,1.0,100,0.00,,---,0.00,VWS V14.00,2013-02-14 23:14:00,
2013-02-14 18:19:00,46.1,46.1,30.09,SE,131,1.0,1.0,100,0.00,,---,0.00,VWS V14.00,2013-02-14 23:19:00,
2013-02-14 18:24:00,46.0,46.0,30.09,SE,135,1.0,3.0,100,0.00,,---,0.00,VWS V14.00,2013-02-14 23:24:00,
2013-02-14 18:29:00,45.9,45.9,30.09,SE,143,0.0,3.0,100,0.00,,---,0.00,VWS V14.00,2013-02-14 23:29:00,
2013-02-14 18:34:00,45.8,45.8,30.09,SE,143,0.0,2.0,100,0.00,,---,0.00,VWS V14.00,2013-02-14 23:34:00,
2013-02-14 18:39:00,45.7,45.7,30.10,SE,140,1.0,2.0,100,0.00,,---,0.00,VWS V14.00,2013-02-14 23:39:00,
2013-02-14 18:44:00,45.7,45.7,30.11,SE,139,1.0,2.0,100,0.00,,---,0.00,VWS V14.00,2013-02-14 23:44:00,
2013-02-14 18:49:00,45.6,45.6,30.10,SE,139,0.0,2.0,100,0.00,,---,0.00,VWS V14.00,2013-02-14 23:49:00,
2013-02-14 18:54:00,45.6,45.6,30.10,SE,139,0.0,2.0,100,0.00,,---,0.00,VWS V14.00,2013-02-14 23:54:00,
2013-02-14 18:59:00,45.5,45.5,30.10,SE,139,0.0,2.0,100,0.00,,---,0.00,VWS V14.00,2013-02-14 23:59:00,
2013-02-14 19:04:00,45.4,45.4,30.10,SE,139,0.0,1.0,100,0.00,,---,0.00,VWS V14.00,2013-02-15 00:04:00,
2013-02-14 19:09:00,45.4,45.4,30.11,SE,131,1.0,1.0,100,0.00,,---,0.00,VWS V14.00,2013-02-15 00:09:00,
2013-02-14 19:14:00,45.3,45.3,30.11,SE,131,0.0,1.0,100,0.00,,---,0.00,VWS V14.00,2013-02-15 00:14:00,
2013-02-14 19:19:00,45.2,45.2,30.11,SE,125,1.0,2.0,100,0.00,,---,0.00,VWS V14.00,2013-02-15 00:19:00,
2013-02-14 19:24:00,45.2,45.2,30.12,SE,124,0.0,3.0,100,0.00,,---,0.00,VWS V14.00,2013-02-15 00:24:00,
2013-02-14 19:29:00,45.2,45.2,30.12,SE,124,1.0,3.0,100,0.00,,---,0.00,VWS V14.00,2013-02-15 00:29:00,
2013-02-14 19:34:00,45.2,45.2,30.12,SE,126,1.0,2.0,100,0.00,,---,0.00,VWS V14.00,2013-02-15 00:34:00,
2013-02-14 19:39:00,45.1,45.1,30.12,SE,126,0.0,2.0,100,0.00,,---,0.00,VWS V14.00,2013-02-15 00:39:00,
2013-02-14 19:44:00,45.1,45.1,30.12,SE,127,0.0,2.0,100,0.00,,---,0.00,VWS V14.00,2013-02-15 00:44:00,
2013-02-14 19:49:00,45.1,45.1,30.11,SE,127,1.0,2.0,100,0.00,,---,0.00,VWS V14.00,2013-02-15 00:49:00,
2013-02-14 19:54:00,45.1,45.1,30.12,ESE,120,1.0,2.0,100,0.00,,---,0.00,VWS V14.00,2013-02-15 00:54:00,
2013-02-14 19:59:00,45.0,45.0,30.11,ESE,121,1.0,2.0,100,0.00,,---,0.00,VWS V14.00,2013-02-15 00:59:00,
2013-02-14 20:04:00,44.8,44.8,30.11,ESE,121,0.0,1.0,100,0.00,,---,0.00,VWS V14.00,2013-02-15 01:04:00,
2013-02-14 20:09:00,44.8,44.8,30.10,ESE,121,1.0,1.0,100,0.00,,---,0.00,VWS V14.00,2013-02-15 01:09:00,
2013-02-14 20:14:00,44.7,44.7,30.11,ESE,119,0.0,1.0,100,0.00,,---,0.00,VWS V14.00,2013-02-15 01:14:00,
2013-02-14 20:19:00,44.7,44.7,30.12,ESE,118,0.0,2.0,100,0.00,,---,0.00,VWS V14.00,2013-02-15 01:19:00,
2013-02-14 20:24:00,44.7,44.7,30.13,ESE,119,0.0,2.0,100,0.00,,---,0.00,VWS V14.00,2013-02-15 01:24:00,
2013-02-14 20:29:00,44.7,44.7,30.13,SE,138,1.0,2.0,100,0.01,,---,0.01,VWS V14.00,2013-02-15 01:29:00,
2013-02-14 20:34:00,44.6,44.6,30.13,SE,138,0.0,1.0,100,0.01,,---,0.01,VWS V14.00,2013-02-15 01:34:00,
2013-02-14 20:39:00,44.6,44.6,30.13,SE,138,1.0,1.0,100,0.01,,---,0.01,VWS V14.00,2013-02-15 01:39:00,
2013-02-14 20:44:00,44.5,44.5,30.14,SE,138,0.0,1.0,100,0.01,,---,0.01,VWS V14.00,2013-02-15 01:44:00,
2013-02-14 20:48:00,44.4,44.4,30.15,SE,138,0.0,1.0,100,0.01,,---,0.01,VWS V14.00,2013-02-15 01:48:00,
2013-02-14 20:53:00,44.3,44.3,30.14,SE,138,0.0,1.0,100,0.01,,---,0.01,VWS V14.00,2013-02-15 01:53:00,
2013-02-14 20:58:00,44.2,44.2,30.14,SE,138,0.0,1.0,100,0.01,,---,0.01,VWS V14.00,2013-02-15 01:58:00,
2013-02-14 21:03:00,44.1,44.1,30.13,SE,138,0.0,0.0,100,0.01,,---,0.01,VWS V14.00,2013-02-15 02:03:00,
2013-02-14 21:08:00,44.1,44.1,30.14,SE,138,0.0,0.0,100,0.00,,---,0.01,VWS V14.00,2013-02-15 02:08:00,
2013-02-14 21:13:00,44.1,44.1,30.13,SE,138,0.0,0.0,100,0.00,,---,0.01,VWS V14.00,2013-02-15 02:13:00,
2013-02-14 21:18:00,44.1,44.1,30.14,SE,138,0.0,0.0,100,0.00,,---,0.01,VWS V14.00,2013-02-15 02:18:00,
2013-02-14 21:23:00,44.0,44.0,30.15,SE,138,0.0,0.0,100,0.00,,---,0.01,VWS V14.00,2013-02-15 02:23:00,
2013-02-14 21:28:00,43.9,43.9,30.14,SE,138,0.0,0.0,100,0.00,,---,0.01,VWS V14.00,2013-02-15 02:28:00,
2013-02-14 21:33:00,43.9,43.9,30.14,SE,138,0.0,0.0,100,0.00,,---,0.01,VWS V14.00,2013-02-15 02:33:00,
2013-02-14 21:38:00,43.9,43.9,30.15,SE,138,0.0,0.0,100,0.00,,---,0.01,VWS V14.00,2013-02-15 02:38:00,
2013-02-14 21:43:00,43.8,43.8,30.14,SE,138,0.0,0.0,100,0.00,,---,0.01,VWS V14.00,2013-02-15 02:43:00,
2013-02-14 21:48:00,43.9,43.9,30.14,SE,138,0.0,1.0,100,0.00,,---,0.01,VWS V14.00,2013-02-15 02:48:00,
2013-02-14 21:53:00,43.9,43.9,30.14,SE,138,0.0,1.0,100,0.00,,---,0.01,VWS V14.00,2013-02-15 02:53:00,
2013-02-14 21:58:00,44.0,44.0,30.14,SE,138,0.0,1.0,100,0.00,,---,0.01,VWS V14.00,2013-02-15 02:58:00,
2013-02-14 22:03:00,44.1,44.1,30.14,SE,138,0.0,0.0,100,0.00,,---,0.01,VWS V14.00,2013-02-15 03:03:00,
2013-02-14 22:08:00,44.2,44.2,30.15,SE,138,0.0,0.0,100,0.00,,---,0.01,VWS V14.00,2013-02-15 03:08:00,
2013-02-14 22:13:00,44.4,44.4,30.15,East,92,1.0,2.0,100,0.00,,---,0.01,VWS V14.00,2013-02-15 03:13:00,
2013-02-14 22:18:00,44.5,44.5,30.14,ENE,61,1.0,2.0,100,0.00,,---,0.01,VWS V14.00,2013-02-15 03:18:00,
2013-02-14 22:23:00,44.7,44.7,30.14,ENE,58,2.0,2.0,100,0.00,,---,0.01,VWS V14.00,2013-02-15 03:23:00,
2013-02-14 22:28:00,44.7,44.7,30.14,ENE,58,0.0,2.0,100,0.00,,---,0.01,VWS V14.00,2013-02-15 03:28:00,
2013-02-14 22:33:00,44.8,44.8,30.13,NE,49,2.0,3.0,100,0.00,,---,0.01,VWS V14.00,2013-02-15 03:33:00,
2013-02-14 22:38:00,44.8,44.8,30.12,NE,46,1.0,3.0,100,0.00,,---,0.01,VWS V14.00,2013-02-15 03:38:00,
2013-02-14 22:43:00,44.8,44.8,30.12,NE,46,2.0,3.0,100,0.00,,---,0.01,VWS V14.00,2013-02-15 03:43:00,
2013-02-14 22:48:00,44.7,44.7,30.12,NE,46,1.0,3.0,100,0.00,,---,0.01,VWS V14.00,2013-02-15 03:48:00,
2013-02-14 22:53:00,44.7,44.7,30.12,NE,46,2.0,3.0,100,0.00,,---,0.01,VWS V14.00,2013-02-15 03:53:00,
2013-02-14 22:58:00,44.7,44.7,30.11,NE,46,2.0,3.0,100,0.00,,---,0.01,VWS V14.00,2013-02-15 03:58:00,
2013-02-14 23:03:00,44.8,44.8,30.11,NE,45,2.0,3.0,100,0.00,,---,0.01,VWS V14.00,2013-02-15 04:03:00,
2013-02-14 23:08:00,44.7,44.7,30.11,NE,37,3.0,4.0,100,0.00,,---,0.01,VWS V14.00,2013-02-15 04:08:00,
2013-02-14 23:13:00,44.7,44.7,30.10,NNE,30,3.0,5.0,100,0.00,,---,0.01,VWS V14.00,2013-02-15 04:13:00,
2013-02-14 23:18:00,44.7,44.7,30.10,NE,35,1.0,5.0,100,0.00,,---,0.01,VWS V14.00,2013-02-15 04:18:00,
2013-02-14 23:23:00,44.8,44.8,30.11,NNE,29,2.0,5.0,100,0.00,,---,0.01,VWS V14.00,2013-02-15 04:23:00,
2013-02-14 23:28:00,44.8,44.8,30.11,North,10,4.0,5.0,100,0.00,,---,0.01,VWS V14.00,2013-02-15 04:28:00,
2013-02-14 23:33:00,45.0,45.0,30.11,North,0,4.0,6.0,100,0.00,,---,0.01,VWS V14.00,2013-02-15 04:33:00,
2013-02-14 23:38:00,45.1,45.1,30.11,North,354,6.0,6.0,100,0.00,,---,0.01,VWS V14.00,2013-02-15 04:38:00,
2013-02-14 23:43:00,45.1,45.1,30.11,North,1,4.0,6.0,100,0.00,,---,0.01,VWS V14.00,2013-02-15 04:43:00,
2013-02-14 23:48:00,45.2,45.2,30.11,North,0,3.0,6.0,100,0.00,,---,0.01,VWS V14.00,2013-02-15 04:48:00,
2013-02-14 23:53:00,45.1,45.1,30.11,North,4,3.0,6.0,100,0.00,,---,0.01,VWS V14.00,2013-02-15 04:53:00,
2013-02-14 23:58:00,45.1,45.1,30.11,NNE,13,2.0,6.0,100,0.00,,---,0.01,VWS V14.00,2013-02-15 04:58:00,